Floyd, Arkansas
Current Conditions -  °F | °C
As of 8:56 AM on Thursday 23 Oct 2014 (Local Time) from KSRC Reporting Station
Clear Clear  
Wind Chill: 46°   Ceiling: Unl
Heat Index: 48°   Visibility: 10mi
Dew Point: 45°   Wind: 5mph
Humidity: 89%   Direction: 360°N
Pressure: 30.23"   Gusts: NA
Location:  35.2662°N, 91.8491°W
Report Text: KSRC 231356Z AUTO 36004KT 10SM CLR 09/07 A3023 RMK AO2 SLP244 T00890072 TSNO
Loading
Personal Weather Stations






























Interactive Weather Map
Tropical Storm Tracking
New forecast layout! Learn more

10-Day Weather Forecast

Advertisements
Track Severe Weather on mobile